createdAt,value
2018-12-10T00:00:06.467Z,0.00
2018-12-10T00:01:06.454Z,0.00
2018-12-10T00:02:06.459Z,0.00
2018-12-10T00:03:06.476Z,0.00
2018-12-10T00:04:06.416Z,0.00
2018-12-10T00:05:06.439Z,0.00
2018-12-10T00:06:06.457Z,0.00
2018-12-10T00:07:06.392Z,0.00
2018-12-10T00:08:06.383Z,0.00
2018-12-10T00:09:06.500Z,0.00
2018-12-10T00:10:06.375Z,0.00
2018-12-10T00:11:06.352Z,0.00
2018-12-10T00:12:06.367Z,0.00
2018-12-10T00:13:06.331Z,0.00
2018-12-10T00:14:06.356Z,0.00
2018-12-10T00:15:06.317Z,0.00
2018-12-10T00:16:06.310Z,0.00
2018-12-10T00:17:06.301Z,0.00
2018-12-10T00:18:06.527Z,0.00
2018-12-10T00:19:06.278Z,0.00
2018-12-10T00:20:06.302Z,0.00
2018-12-10T00:21:06.250Z,0.00
2018-12-10T00:22:06.249Z,0.00
2018-12-10T00:23:06.260Z,0.00
2018-12-10T00:24:06.221Z,0.00
2018-12-10T00:25:06.268Z,0.00
2018-12-10T00:26:06.388Z,0.00
2018-12-10T00:27:06.452Z,0.00
2018-12-10T00:28:06.171Z,0.00
2018-12-10T00:29:06.153Z,0.00
2018-12-10T00:30:06.171Z,0.00
2018-12-10T00:31:06.134Z,0.00
2018-12-10T00:32:06.132Z,0.00
2018-12-10T00:33:06.106Z,0.00
2018-12-10T00:34:06.107Z,0.00
2018-12-10T00:35:06.150Z,0.00
2018-12-10T00:36:06.147Z,0.00
2018-12-10T00:37:06.094Z,0.00
2018-12-10T00:38:06.059Z,0.00
2018-12-10T00:39:06.095Z,0.00
2018-12-10T00:40:06.033Z,0.00
2018-12-10T00:41:06.042Z,0.00
2018-12-10T00:42:06.031Z,0.00
2018-12-10T00:43:06.014Z,0.00
2018-12-10T00:44:06.006Z,0.00
2018-12-10T00:45:06.011Z,0.00
2018-12-10T00:46:05.993Z,0.00
2018-12-10T00:47:05.958Z,0.00
2018-12-10T00:48:05.955Z,0.00
2018-12-10T00:49:05.976Z,0.00
2018-12-10T00:50:05.932Z,0.00
2018-12-10T00:51:05.943Z,0.00
2018-12-10T00:52:05.931Z,0.00
2018-12-10T00:53:05.894Z,0.00
2018-12-10T00:54:05.908Z,0.00
2018-12-10T00:55:05.876Z,0.00
2018-12-10T00:56:05.868Z,0.00
2018-12-10T00:57:05.871Z,0.00
2018-12-10T00:58:05.943Z,0.00
2018-12-10T00:59:05.831Z,0.00
2018-12-10T01:00:05.848Z,0.00
2018-12-10T01:01:05.838Z,0.00
2018-12-10T01:02:05.849Z,0.00
2018-12-10T01:03:05.784Z,0.00
2018-12-10T01:04:05.820Z,0.00
2018-12-10T01:05:05.758Z,0.00
2018-12-10T01:06:05.752Z,0.00
2018-12-10T01:07:05.739Z,0.00
2018-12-10T01:08:05.758Z,0.00
2018-12-10T01:09:05.787Z,0.00
2018-12-10T01:10:05.706Z,0.00
2018-12-10T01:11:05.702Z,0.00
2018-12-10T01:12:05.695Z,0.00
2018-12-10T01:13:05.696Z,0.00
2018-12-10T01:14:05.699Z,0.00
2018-12-10T01:15:05.653Z,0.00
2018-12-10T01:16:05.650Z,0.00
2018-12-10T01:17:05.638Z,0.00
2018-12-10T01:18:05.683Z,0.00
2018-12-10T01:19:05.611Z,0.00
2018-12-10T01:20:05.604Z,0.00
2018-12-10T01:21:05.626Z,0.00
2018-12-10T01:22:05.577Z,0.00
2018-12-10T01:23:05.565Z,0.00
2018-12-10T01:24:05.573Z,0.00
2018-12-10T01:25:05.550Z,0.00
2018-12-10T01:26:05.532Z,0.00
2018-12-10T01:27:05.528Z,0.00
2018-12-10T01:28:05.554Z,0.00
2018-12-10T01:29:05.512Z,0.00
2018-12-10T01:30:05.490Z,0.00
2018-12-10T01:31:05.480Z,0.00
2018-12-10T01:32:05.466Z,0.00
2018-12-10T01:33:05.474Z,0.00
2018-12-10T01:34:05.500Z,0.00
2018-12-10T01:35:05.448Z,0.00
2018-12-10T01:36:05.425Z,0.00
2018-12-10T01:37:05.414Z,0.00
2018-12-10T01:38:05.414Z,0.00
2018-12-10T01:39:05.408Z,0.00
2018-12-10T01:40:05.396Z,0.00
2018-12-10T01:41:05.388Z,0.00
2018-12-10T01:42:05.403Z,0.00
2018-12-10T01:43:05.354Z,0.00
2018-12-10T01:44:05.377Z,0.00
2018-12-10T01:45:05.412Z,0.00
2018-12-10T01:46:05.422Z,0.00
2018-12-10T01:47:05.306Z,0.00
2018-12-10T01:48:05.317Z,0.00
2018-12-10T01:49:05.291Z,0.00
2018-12-10T01:50:05.388Z,0.00
2018-12-10T01:51:05.267Z,0.00
2018-12-10T01:52:05.242Z,0.00
2018-12-10T01:53:05.272Z,0.00
2018-12-10T01:54:05.227Z,0.00
2018-12-10T01:55:05.213Z,0.00
2018-12-10T01:56:05.296Z,0.00
2018-12-10T01:57:05.206Z,0.00
2018-12-10T01:58:05.213Z,0.00
2018-12-10T01:59:05.205Z,0.00
2018-12-10T02:00:05.166Z,0.00
2018-12-10T02:01:05.147Z,0.00
2018-12-10T02:02:05.179Z,0.00
2018-12-10T02:03:05.151Z,0.00
2018-12-10T02:04:05.151Z,0.00
2018-12-10T02:05:05.109Z,0.00
2018-12-10T02:06:05.102Z,0.00
2018-12-10T02:07:05.094Z,0.00
2018-12-10T02:08:05.111Z,0.00
2018-12-10T02:09:05.077Z,0.00
2018-12-10T02:10:05.057Z,0.00
2018-12-10T02:11:05.033Z,0.00
2018-12-10T02:12:05.031Z,0.00
2018-12-10T02:13:05.017Z,0.00
2018-12-10T02:14:05.059Z,0.00
2018-12-10T02:15:04.993Z,0.00
2018-12-10T02:16:04.988Z,0.00
2018-12-10T02:17:04.978Z,0.00
2018-12-10T02:18:04.974Z,0.00
2018-12-10T02:19:04.977Z,0.00
2018-12-10T02:20:04.987Z,0.00
2018-12-10T02:21:04.965Z,0.00
2018-12-10T02:22:04.951Z,0.00
2018-12-10T02:23:04.996Z,0.00
2018-12-10T02:24:04.898Z,0.00
2018-12-10T02:25:04.888Z,0.00
2018-12-10T02:26:04.892Z,0.00
2018-12-10T02:27:04.903Z,0.00
2018-12-10T02:28:04.859Z,0.00
2018-12-10T02:29:04.843Z,0.00
2018-12-10T02:30:04.869Z,0.00
2018-12-10T02:31:04.874Z,0.00
2018-12-10T02:32:04.813Z,0.00
2018-12-10T02:33:04.808Z,0.00
2018-12-10T02:34:04.849Z,0.00
2018-12-10T02:35:04.777Z,0.00
2018-12-10T02:36:04.775Z,0.00
2018-12-10T02:37:04.777Z,0.00
2018-12-10T02:38:04.759Z,0.00
2018-12-10T02:39:04.733Z,0.00
2018-12-10T02:40:04.737Z,0.00
2018-12-10T02:41:04.790Z,0.00
2018-12-10T02:42:04.727Z,0.00
2018-12-10T02:43:04.685Z,0.00
2018-12-10T02:44:04.717Z,0.00
2018-12-10T02:45:04.696Z,0.00
2018-12-10T02:46:04.659Z,0.00
2018-12-10T02:47:04.663Z,0.00
2018-12-10T02:48:04.640Z,0.00
2018-12-10T02:49:04.693Z,0.00
2018-12-10T02:50:04.633Z,0.00
2018-12-10T02:51:04.635Z,0.00
2018-12-10T02:52:04.609Z,0.00
2018-12-10T02:53:04.590Z,0.00
2018-12-10T02:54:04.625Z,0.00
2018-12-10T02:55:04.585Z,0.00
2018-12-10T02:56:04.546Z,0.00
2018-12-10T02:57:04.554Z,0.00
2018-12-10T02:58:04.684Z,0.00
2018-12-10T02:59:04.524Z,0.00
2018-12-10T03:00:04.508Z,0.00
2018-12-10T03:01:04.533Z,0.00
2018-12-10T03:02:04.479Z,0.00
2018-12-10T03:03:04.478Z,0.00
2018-12-10T03:04:04.476Z,0.00
2018-12-10T03:05:04.525Z,0.00
2018-12-10T03:06:04.435Z,0.00
2018-12-10T03:07:04.430Z,0.00
2018-12-10T03:08:04.442Z,0.00
2018-12-10T03:09:04.500Z,0.00
2018-12-10T03:10:04.402Z,0.00
2018-12-10T03:11:04.388Z,0.00
2018-12-10T03:12:04.432Z,0.00
2018-12-10T03:13:04.362Z,0.00
2018-12-10T03:14:04.356Z,0.00
2018-12-10T03:15:04.342Z,0.00
2018-12-10T03:16:04.406Z,0.00
2018-12-10T03:17:04.318Z,0.00
2018-12-10T03:18:04.323Z,0.00
2018-12-10T03:19:04.314Z,0.00
2018-12-10T03:20:04.300Z,0.00
2018-12-10T03:21:04.302Z,0.00
2018-12-10T03:22:04.311Z,0.00
2018-12-10T03:23:04.281Z,0.00
2018-12-10T03:24:04.302Z,0.00
2018-12-10T03:25:04.233Z,0.00
2018-12-10T03:26:04.233Z,0.00
2018-12-10T03:27:04.229Z,0.00
2018-12-10T03:28:04.207Z,0.00
2018-12-10T03:29:04.189Z,0.00
2018-12-10T03:30:04.197Z,0.00
2018-12-10T03:31:04.181Z,0.00
2018-12-10T03:32:04.159Z,0.00
2018-12-10T03:33:04.145Z,0.00
2018-12-10T03:34:04.231Z,0.00
2018-12-10T03:35:04.124Z,0.00
2018-12-10T03:36:04.138Z,0.00
2018-12-10T03:37:04.108Z,0.00
2018-12-10T03:38:04.112Z,0.00
2018-12-10T03:39:04.107Z,0.00
2018-12-10T03:40:04.084Z,0.00
2018-12-10T03:41:04.132Z,0.00
2018-12-10T03:42:04.051Z,0.00
2018-12-10T03:43:04.037Z,0.00
2018-12-10T03:44:04.172Z,0.00
2018-12-10T03:45:04.028Z,0.00
2018-12-10T03:46:04.028Z,0.00
2018-12-10T03:47:04.007Z,0.00
2018-12-10T03:48:03.979Z,0.00
2018-12-10T03:49:03.980Z,0.00
2018-12-10T03:50:04.019Z,0.00
2018-12-10T03:51:03.982Z,0.00
2018-12-10T03:52:03.941Z,0.00
2018-12-10T03:53:03.931Z,0.00
2018-12-10T03:54:03.921Z,0.00
2018-12-10T03:55:03.922Z,0.00
2018-12-10T03:56:03.893Z,0.00
2018-12-10T03:57:03.906Z,0.00
2018-12-10T03:58:03.890Z,0.00
2018-12-10T03:59:03.962Z,0.00
2018-12-10T04:00:03.855Z,0.00
2018-12-10T04:01:03.898Z,0.00
2018-12-10T04:02:03.852Z,0.00
2018-12-10T04:03:03.836Z,0.00
2018-12-10T04:04:03.836Z,0.00
2018-12-10T04:05:03.792Z,0.00
2018-12-10T04:06:03.790Z,0.00
2018-12-10T04:07:03.816Z,0.00
2018-12-10T04:08:03.765Z,0.00
2018-12-10T04:09:03.773Z,0.00
2018-12-10T04:10:03.758Z,0.00
2018-12-10T04:11:03.770Z,0.00
2018-12-10T04:12:03.718Z,0.00
2018-12-10T04:13:03.738Z,0.00
2018-12-10T04:14:03.729Z,0.00
2018-12-10T04:15:03.726Z,0.00
2018-12-10T04:16:03.680Z,0.00
2018-12-10T04:17:03.714Z,0.00
2018-12-10T04:18:03.694Z,0.00
2018-12-10T04:19:03.677Z,0.00
2018-12-10T04:20:03.634Z,0.00
2018-12-10T04:21:03.639Z,0.00
2018-12-10T04:22:03.614Z,0.00
2018-12-10T04:23:03.608Z,0.00
2018-12-10T04:24:03.653Z,0.00
2018-12-10T04:25:03.591Z,0.00
2018-12-10T04:26:03.571Z,0.00
2018-12-10T04:27:03.554Z,0.00
2018-12-10T04:28:03.597Z,0.00
2018-12-10T04:29:03.539Z,0.00
2018-12-10T04:30:03.549Z,0.00
2018-12-10T04:31:03.511Z,0.00
2018-12-10T04:32:03.544Z,0.00
2018-12-10T04:33:03.491Z,0.00
2018-12-10T04:34:03.499Z,0.00
2018-12-10T04:35:03.480Z,0.00
2018-12-10T04:36:03.468Z,0.00
2018-12-10T04:37:03.456Z,0.00
2018-12-10T04:38:03.434Z,0.00
2018-12-10T04:39:03.469Z,0.00
2018-12-10T04:40:03.414Z,0.00
2018-12-10T04:41:03.414Z,0.00
2018-12-10T04:42:03.390Z,0.00
2018-12-10T04:43:03.394Z,0.00
2018-12-10T04:44:03.366Z,0.00
2018-12-10T04:45:03.393Z,0.00
2018-12-10T04:46:03.349Z,0.00
2018-12-10T04:47:03.348Z,0.00
2018-12-10T04:48:03.327Z,0.00
2018-12-10T04:49:03.337Z,0.00
2018-12-10T04:50:03.348Z,0.00
2018-12-10T04:51:03.295Z,0.00
2018-12-10T04:52:03.286Z,0.00
2018-12-10T04:53:03.276Z,0.00
2018-12-10T04:54:03.260Z,0.00
2018-12-10T04:55:03.296Z,0.00
2018-12-10T04:56:03.248Z,0.00
2018-12-10T04:57:03.232Z,0.00
2018-12-10T04:58:03.223Z,0.00
2018-12-10T04:59:03.209Z,0.00
2018-12-10T05:00:03.203Z,0.00
2018-12-10T05:01:03.219Z,0.00
2018-12-10T05:02:03.173Z,0.00
2018-12-10T05:03:03.165Z,0.00
2018-12-10T05:04:03.150Z,0.00
2018-12-10T05:05:03.138Z,0.00
2018-12-10T05:06:03.163Z,0.00
2018-12-10T05:07:03.159Z,0.00
2018-12-10T05:08:03.115Z,0.00
2018-12-10T05:09:03.095Z,0.00
2018-12-10T05:10:03.089Z,0.00
2018-12-10T05:11:03.075Z,0.00
2018-12-10T05:12:03.091Z,0.00
2018-12-10T05:13:03.053Z,0.00
2018-12-10T05:14:03.074Z,0.00
2018-12-10T05:15:03.039Z,0.00
2018-12-10T05:16:03.025Z,0.00
2018-12-10T05:17:03.031Z,0.00
2018-12-10T05:18:03.005Z,0.00
2018-12-10T05:19:03.027Z,0.00
2018-12-10T05:20:02.993Z,0.00
2018-12-10T05:21:02.973Z,0.00
2018-12-10T05:22:03.001Z,0.00
2018-12-10T05:23:02.948Z,0.00
2018-12-10T05:24:02.942Z,0.00
2018-12-10T05:25:03.032Z,0.00
2018-12-10T05:26:02.916Z,0.00
2018-12-10T05:27:02.913Z,0.00
2018-12-10T05:28:02.891Z,0.00
2018-12-10T05:29:02.893Z,0.00
2018-12-10T05:30:02.921Z,0.00
2018-12-10T05:31:02.898Z,0.00
2018-12-10T05:32:02.866Z,0.00
2018-12-10T05:33:02.835Z,0.00
2018-12-10T05:34:02.839Z,0.00
2018-12-10T05:35:02.877Z,0.00
2018-12-10T05:36:02.827Z,0.00
2018-12-10T05:37:02.788Z,0.00
2018-12-10T05:38:02.787Z,0.00
2018-12-10T05:39:02.857Z,0.00
2018-12-10T05:40:02.771Z,0.00
2018-12-10T05:41:02.749Z,0.00
2018-12-10T05:42:02.775Z,0.00
2018-12-10T05:43:02.769Z,0.00
2018-12-10T05:44:02.749Z,0.00
2018-12-10T05:45:02.715Z,0.00
2018-12-10T05:46:02.696Z,0.00
2018-12-10T05:47:02.679Z,0.00
2018-12-10T05:48:02.732Z,0.00
2018-12-10T05:49:02.676Z,0.00
2018-12-10T05:50:02.675Z,0.00
2018-12-10T05:51:02.645Z,0.00
2018-12-10T05:52:02.640Z,0.00
2018-12-10T05:53:02.619Z,0.00
2018-12-10T05:56:05.618Z,0.00
2018-12-10T05:57:05.217Z,0.00
2018-12-10T05:58:05.253Z,0.00
2018-12-10T05:59:05.137Z,0.00
2018-12-10T06:00:05.081Z,0.00
2018-12-10T06:01:05.066Z,0.00
2018-12-10T06:02:05.063Z,0.00
2018-12-10T06:03:05.043Z,0.00
2018-12-10T06:04:05.043Z,0.00
2018-12-10T06:05:05.041Z,0.00
2018-12-10T06:06:05.019Z,0.00
2018-12-10T06:07:05.017Z,0.00
2018-12-10T06:08:04.993Z,0.00
2018-12-10T06:09:05.703Z,0.00
2018-12-10T06:10:04.971Z,0.00
2018-12-10T06:11:04.963Z,0.00
2018-12-10T06:12:04.991Z,0.00
2018-12-10T06:13:04.964Z,0.00
2018-12-10T06:14:09.808Z,0.00
2018-12-10T06:15:04.920Z,0.00
2018-12-10T06:16:04.912Z,0.00
2018-12-10T06:17:04.908Z,0.00
2018-12-10T06:18:04.900Z,0.00
2018-12-10T06:19:04.877Z,0.00
2018-12-10T06:20:04.866Z,0.00
2018-12-10T06:21:04.845Z,0.00
2018-12-10T06:22:04.866Z,0.00
2018-12-10T06:23:04.889Z,0.00
2018-12-10T06:24:04.825Z,0.00
2018-12-10T06:25:04.831Z,0.00
2018-12-10T06:26:05.040Z,0.00
2018-12-10T06:27:05.188Z,0.00
2018-12-10T06:28:04.986Z,0.00
2018-12-10T06:29:05.738Z,0.00
2018-12-10T06:30:19.590Z,4.00
2018-12-10T06:31:04.742Z,0.00
2018-12-10T06:32:04.866Z,0.00
2018-12-10T06:33:04.723Z,0.00
2018-12-10T06:34:04.738Z,0.00
2018-12-10T06:35:04.759Z,0.00
2018-12-10T06:36:04.711Z,0.00
2018-12-10T06:37:04.712Z,0.00
2018-12-10T06:38:04.676Z,0.00
2018-12-10T06:39:04.793Z,4.00
2018-12-10T06:40:04.648Z,4.00
2018-12-10T06:41:04.647Z,4.00
2018-12-10T06:42:04.705Z,4.00
2018-12-10T06:43:04.768Z,4.00
2018-12-10T06:46:14.178Z,4.00
2018-12-10T06:47:13.776Z,4.00
2018-12-10T06:48:13.713Z,4.00
2018-12-10T06:49:13.651Z,8.00
2018-12-10T06:50:13.660Z,8.00
2018-12-10T06:51:13.584Z,8.00
2018-12-10T06:52:13.586Z,12.00
2018-12-10T06:53:13.688Z,12.00
2018-12-10T06:54:13.552Z,16.00
2018-12-10T06:55:13.592Z,16.00
2018-12-10T06:56:13.720Z,20.00
2018-12-10T06:57:13.552Z,20.00
2018-12-10T06:58:13.657Z,24.00
2018-12-10T07:01:00.045Z,36.00
2018-12-10T07:01:58.708Z,44.00
2018-12-10T07:02:58.718Z,48.00
2018-12-10T07:03:58.635Z,56.00
2018-12-10T07:04:58.500Z,68.00
2018-12-10T07:05:58.510Z,76.00
2018-12-10T07:06:58.540Z,84.00
2018-12-10T07:07:58.416Z,100.00
2018-12-10T07:08:58.390Z,112.00
2018-12-10T07:09:58.377Z,120.00
2018-12-10T07:10:58.394Z,136.00
2018-12-10T07:11:58.444Z,152.00
2018-12-10T07:12:58.384Z,172.00
2018-12-10T07:13:58.379Z,196.00
2018-12-10T07:14:58.332Z,216.00
2018-12-10T07:15:58.306Z,236.00
2018-12-10T07:16:58.349Z,260.00
2018-12-10T07:17:58.295Z,288.00
2018-12-10T07:19:05.064Z,312.00
2018-12-10T07:19:58.277Z,344.00
2018-12-10T07:20:58.256Z,376.00
2018-12-10T07:21:58.248Z,408.00
2018-12-10T07:22:58.248Z,444.00
2018-12-10T07:23:58.227Z,492.00
2018-12-10T07:24:58.256Z,552.00
2018-12-10T07:25:58.196Z,608.00
2018-12-10T07:26:58.217Z,652.00
2018-12-10T07:27:58.189Z,676.00
2018-12-10T07:28:58.202Z,712.00
2018-12-10T07:29:58.162Z,752.00
2018-12-10T07:30:58.143Z,796.00
2018-12-10T07:31:58.227Z,844.00
2018-12-10T07:32:58.185Z,896.00
2018-12-10T07:33:58.109Z,952.00
2018-12-10T07:34:58.126Z,1012.00
2018-12-10T07:35:58.085Z,1080.00
2018-12-10T07:36:58.126Z,1132.00
2018-12-10T07:37:58.136Z,1168.00
2018-12-10T07:38:58.078Z,1180.00
2018-12-10T07:39:58.062Z,1172.00
2018-12-10T07:40:58.041Z,1156.00
2018-12-10T07:41:58.720Z,1168.00
2018-12-10T07:42:58.013Z,1196.00
2018-12-10T07:43:58.037Z,1256.00
2018-12-10T07:44:57.995Z,1284.00
2018-12-10T07:45:57.991Z,1328.00
2018-12-10T07:46:57.977Z,1360.00
2018-12-10T07:47:57.956Z,1428.00
2018-12-10T07:48:58.011Z,1528.00
2018-12-10T07:49:57.955Z,1640.00
2018-12-10T07:50:57.931Z,1684.00
2018-12-10T07:51:57.912Z,1728.00
2018-12-10T07:52:57.908Z,1788.00
2018-12-10T07:53:57.948Z,1872.00
2018-12-10T07:54:57.928Z,1988.00
2018-12-10T07:55:57.874Z,2100.00
2018-12-10T07:56:57.862Z,2228.00
2018-12-10T07:57:57.850Z,2288.00
2018-12-10T07:58:57.838Z,2248.00
2018-12-10T07:59:57.953Z,2228.00
2018-12-10T08:00:57.835Z,2216.00
2018-12-10T08:01:57.812Z,2220.00
2018-12-10T08:02:57.803Z,2252.00
2018-12-10T08:03:57.789Z,2308.00
2018-12-10T08:04:57.814Z,2384.00
2018-12-10T08:05:57.772Z,2480.00
2018-12-10T08:06:57.748Z,2660.00
2018-12-10T08:07:57.736Z,2936.00
2018-12-10T08:08:57.730Z,3400.00
2018-12-10T08:09:57.718Z,3868.00
2018-12-10T08:10:58.071Z,4288.00
2018-12-10T08:11:57.701Z,4652.00
2018-12-10T08:12:57.688Z,4632.00
2018-12-10T08:13:57.756Z,4304.00
2018-12-10T08:14:57.665Z,4124.00
2018-12-10T08:15:57.668Z,4044.00
2018-12-10T08:16:57.639Z,4116.00
2018-12-10T08:17:57.633Z,5628.00
2018-12-10T08:18:57.620Z,9784.00
2018-12-10T08:19:57.644Z,5960.00
2018-12-10T08:21:02.253Z,5188.00
2018-12-10T08:22:04.220Z,9580.00
2018-12-10T08:28:37.969Z,7772.00
2018-12-10T08:29:36.816Z,3764.00
2018-12-10T08:37:57.142Z,3316.00
2018-12-10T08:38:57.180Z,3004.00
2018-12-10T08:39:56.366Z,2932.00
2018-12-10T08:40:56.177Z,2988.00
2018-12-10T08:41:56.138Z,3112.00
2018-12-10T08:45:36.891Z,3256.00
2018-12-10T08:52:20.307Z,4760.00
2018-12-10T08:53:19.867Z,5000.00
2018-12-10T08:54:20.001Z,5036.00
2018-12-10T08:55:19.774Z,5020.00
2018-12-10T08:59:35.473Z,5248.00
2018-12-10T09:00:35.668Z,5148.00
2018-12-10T09:01:34.758Z,5196.00
2018-12-10T09:02:34.642Z,5356.00
2018-12-10T09:03:34.783Z,5440.00
2018-12-10T09:04:34.438Z,5880.00
2018-12-10T09:05:34.533Z,6900.00
2018-12-10T09:06:35.603Z,7308.00
2018-12-10T09:07:34.504Z,7488.00
2018-12-10T09:08:34.452Z,7204.00
2018-12-10T09:09:34.532Z,7044.00
2018-12-10T09:10:36.135Z,6696.00
2018-12-10T09:11:34.470Z,6224.00
2018-12-10T09:12:34.476Z,5916.00
2018-12-10T09:13:35.498Z,5624.00
2018-12-10T09:14:34.479Z,5460.00
2018-12-10T09:15:34.970Z,5864.00
2018-12-10T09:16:35.035Z,6672.00
2018-12-10T09:17:34.320Z,7688.00
2018-12-10T09:18:36.074Z,8932.00
2018-12-10T09:19:35.134Z,8872.00
2018-12-10T09:20:34.266Z,8968.00
2018-12-10T09:21:34.880Z,9568.00
2018-12-10T09:22:34.341Z,10620.00
2018-12-10T09:23:34.299Z,11392.00
2018-12-10T09:24:34.610Z,10820.00
2018-12-10T09:25:34.397Z,10564.00
2018-12-10T09:26:34.291Z,9032.00
2018-12-10T09:29:03.172Z,6732.00
2018-12-10T09:30:02.740Z,6456.00
2018-12-10T09:31:02.780Z,6984.00
2018-12-10T09:32:02.643Z,10304.00
2018-12-10T09:33:04.438Z,11372.00
2018-12-10T09:34:02.852Z,10672.00
2018-12-10T09:35:03.328Z,9212.00
2018-12-10T09:36:02.611Z,7748.00
2018-12-10T09:37:02.891Z,6784.00
2018-12-10T09:38:09.318Z,5888.00
2018-12-10T09:41:24.679Z,5984.00
2018-12-10T09:42:24.497Z,6240.00
2018-12-10T09:43:24.470Z,6232.00
2018-12-10T09:49:47.120Z,8532.00
2018-12-10T09:50:46.753Z,8364.00
2018-12-10T09:57:53.387Z,11000.00
2018-12-10T09:58:48.282Z,10856.00
2018-12-10T09:59:48.339Z,9916.00
2018-12-10T10:00:48.332Z,8524.00
2018-12-10T10:01:48.219Z,7796.00
2018-12-10T10:02:51.608Z,8084.00
2018-12-10T10:03:48.306Z,8384.00
2018-12-10T10:04:48.168Z,8496.00
2018-12-10T10:05:48.223Z,8148.00
2018-12-10T10:06:48.259Z,7428.00
2018-12-10T10:07:48.337Z,7056.00
2018-12-10T10:08:49.589Z,6132.00
2018-12-10T10:09:48.222Z,5072.00
2018-12-10T10:10:48.115Z,4868.00
2018-12-10T10:11:48.070Z,5072.00
2018-12-10T10:12:48.148Z,5600.00
2018-12-10T10:13:48.155Z,6196.00
2018-12-10T10:14:48.037Z,6384.00
2018-12-10T10:15:48.012Z,7100.00
2018-12-10T10:16:48.149Z,7348.00
2018-12-10T10:17:48.169Z,7380.00
2018-12-10T10:18:48.068Z,6696.00
2018-12-10T10:19:47.988Z,6676.00
2018-12-10T10:20:48.005Z,6416.00
2018-12-10T10:21:48.053Z,6776.00
2018-12-10T10:22:47.944Z,8340.00
2018-12-10T10:23:47.927Z,9396.00
2018-12-10T10:24:49.739Z,11884.00
2018-12-10T10:25:47.994Z,14592.00
2018-12-10T10:26:47.944Z,13900.00
2018-12-10T10:27:47.952Z,12396.00
2018-12-10T10:28:48.400Z,12016.00
2018-12-10T10:29:48.027Z,11896.00
2018-12-10T10:30:48.878Z,11264.00
2018-12-10T10:31:47.835Z,10736.00
2018-12-10T10:32:48.017Z,10804.00
2018-12-10T10:33:47.812Z,11300.00
2018-12-10T10:34:47.903Z,10952.00
2018-12-10T10:35:47.927Z,8904.00
2018-12-10T10:36:47.889Z,6388.00
2018-12-10T10:37:47.776Z,5392.00
2018-12-10T10:38:47.909Z,4752.00
2018-12-10T10:39:48.731Z,4732.00
2018-12-10T10:42:15.367Z,5596.00
2018-12-10T10:43:15.567Z,5776.00
2018-12-10T10:44:15.422Z,5888.00
2018-12-10T10:45:16.436Z,6228.00
2018-12-10T10:46:15.112Z,6688.00
2018-12-10T10:47:15.195Z,7400.00
2018-12-10T10:48:15.049Z,7952.00
2018-12-10T10:49:15.035Z,7592.00
2018-12-10T10:50:15.276Z,7272.00
2018-12-10T10:51:15.125Z,7472.00
2018-12-10T10:52:15.190Z,7988.00
2018-12-10T10:53:15.872Z,8876.00
2018-12-10T10:54:15.067Z,9724.00
2018-12-10T10:55:16.886Z,10244.00
2018-12-10T10:56:16.082Z,9936.00
2018-12-10T10:57:16.082Z,9260.00
2018-12-10T10:58:14.957Z,9388.00
2018-12-10T10:59:15.031Z,10492.00
2018-12-10T11:00:15.153Z,11648.00
2018-12-10T11:01:19.989Z,13740.00
2018-12-10T11:02:15.491Z,16192.00
2018-12-10T11:03:15.108Z,17376.00
2018-12-10T11:04:15.121Z,16352.00
2018-12-10T11:07:11.911Z,14332.00
2018-12-10T11:08:11.603Z,12852.00
2018-12-10T11:09:15.311Z,12720.00
2018-12-10T11:10:11.279Z,13360.00
2018-12-10T11:11:11.318Z,13488.00
2018-12-10T11:12:11.257Z,11696.00
2018-12-10T11:13:11.266Z,11444.00
2018-12-10T11:14:11.274Z,12108.00
2018-12-10T11:15:11.215Z,12668.00
2018-12-10T11:16:11.203Z,14424.00
2018-12-10T11:17:11.193Z,15868.00
2018-12-10T11:18:11.201Z,15260.00
2018-12-10T11:19:11.191Z,13280.00
2018-12-10T11:20:11.212Z,12200.00
2018-12-10T11:21:11.157Z,12388.00
2018-12-10T11:22:11.145Z,12984.00
2018-12-10T11:23:11.132Z,13400.00
2018-12-10T11:24:11.635Z,13176.00
2018-12-10T11:25:11.221Z,13904.00
2018-12-10T11:26:12.560Z,15120.00
2018-12-10T11:27:11.147Z,15860.00
2018-12-10T11:28:11.137Z,14448.00
2018-12-10T11:29:11.155Z,12296.00
2018-12-10T11:30:11.178Z,10284.00
2018-12-10T11:31:11.085Z,9756.00
2018-12-10T11:32:11.057Z,11024.00
2018-12-10T11:33:11.040Z,12888.00
2018-12-10T11:34:11.087Z,12304.00
2018-12-10T11:35:11.004Z,11660.00
2018-12-10T11:36:10.991Z,12588.00
2018-12-10T11:37:11.161Z,14112.00
2018-12-10T11:38:10.967Z,14160.00
2018-12-10T11:39:10.953Z,14504.00
2018-12-10T11:40:10.955Z,13384.00
2018-12-10T11:41:10.946Z,12224.00
2018-12-10T11:42:10.927Z,10580.00
2018-12-10T11:43:10.929Z,11100.00
2018-12-10T11:44:10.901Z,8680.00
2018-12-10T11:45:10.920Z,7768.00
2018-12-10T11:46:10.951Z,7064.00
2018-12-10T11:47:13.163Z,6828.00
2018-12-10T11:48:10.873Z,7728.00
2018-12-10T11:49:10.839Z,8264.00
2018-12-10T11:50:10.843Z,10704.00
2018-12-10T11:51:11.184Z,11636.00
2018-12-10T11:52:10.973Z,11344.00
2018-12-10T11:53:10.869Z,12748.00
2018-12-10T11:54:10.792Z,14364.00
2018-12-10T11:55:10.884Z,12648.00
2018-12-10T11:56:10.822Z,8680.00
2018-12-10T11:57:11.477Z,7768.00
2018-12-10T11:58:10.746Z,8296.00
2018-12-10T11:59:10.736Z,8344.00
2018-12-10T12:00:10.718Z,8740.00
2018-12-10T12:01:10.711Z,8984.00
2018-12-10T12:02:10.772Z,9168.00
2018-12-10T12:03:10.688Z,9612.00
2018-12-10T12:04:10.680Z,10532.00
2018-12-10T12:05:10.788Z,11840.00
2018-12-10T12:06:10.655Z,11896.00
2018-12-10T12:07:10.644Z,11408.00
2018-12-10T12:08:10.635Z,12204.00
2018-12-10T12:09:10.619Z,12532.00
2018-12-10T12:10:10.612Z,12696.00
2018-12-10T12:11:10.630Z,13280.00
2018-12-10T12:12:10.584Z,11676.00
2018-12-10T12:13:10.644Z,11220.00
2018-12-10T12:14:10.589Z,12692.00
2018-12-10T12:15:10.560Z,9648.00
2018-12-10T12:16:10.564Z,6828.00
2018-12-10T12:17:10.532Z,8596.00
2018-12-10T12:18:10.597Z,10688.00
2018-12-10T12:19:11.829Z,13368.00
2018-12-10T12:20:10.513Z,16768.00
2018-12-10T12:21:10.604Z,15392.00
2018-12-10T12:22:10.988Z,16032.00
2018-12-10T12:23:14.133Z,15328.00
2018-12-10T12:24:10.496Z,13220.00
2018-12-10T12:25:10.512Z,8224.00
2018-12-10T12:26:10.689Z,7340.00
2018-12-10T12:27:10.453Z,6140.00
2018-12-10T12:28:10.441Z,6280.00
2018-12-10T12:29:10.523Z,5936.00
2018-12-10T12:30:10.393Z,6844.00
2018-12-10T12:31:10.451Z,8420.00
2018-12-10T12:32:10.375Z,9020.00
2018-12-10T12:33:10.365Z,9896.00
2018-12-10T12:36:03.807Z,8636.00
2018-12-10T12:37:03.452Z,10520.00
2018-12-10T12:38:06.276Z,9572.00
2018-12-10T12:40:32.239Z,7892.00
2018-12-10T12:41:31.871Z,6284.00
2018-12-10T12:42:31.880Z,5880.00
2018-12-10T12:43:31.820Z,5100.00
2018-12-10T12:44:31.883Z,5188.00
2018-12-10T12:45:31.803Z,4744.00
2018-12-10T12:46:31.741Z,4000.00
2018-12-10T12:47:32.283Z,4152.00
2018-12-10T12:48:31.807Z,4500.00
2018-12-10T12:49:31.716Z,3464.00
2018-12-10T12:50:31.696Z,2920.00
2018-12-10T12:51:31.769Z,3536.00
2018-12-10T12:52:31.755Z,4108.00
2018-12-10T12:53:31.675Z,5644.00
2018-12-10T12:54:31.654Z,9060.00
2018-12-10T12:55:31.652Z,7476.00
2018-12-10T12:56:31.673Z,6828.00
2018-12-10T12:57:31.638Z,5764.00
2018-12-10T12:58:31.660Z,6408.00
2018-12-10T12:59:31.598Z,6232.00
2018-12-10T13:00:31.623Z,5796.00
2018-12-10T13:01:31.586Z,5712.00
2018-12-10T13:02:31.680Z,5896.00
2018-12-10T13:03:31.583Z,6080.00
2018-12-10T13:04:31.549Z,6600.00
2018-12-10T13:05:31.577Z,7800.00
2018-12-10T13:06:31.551Z,7000.00
2018-12-10T13:07:31.517Z,7456.00
2018-12-10T13:08:31.520Z,7568.00
2018-12-10T13:09:31.532Z,7024.00
2018-12-10T13:10:31.483Z,6844.00
2018-12-10T13:11:31.489Z,6456.00
2018-12-10T13:12:31.514Z,7804.00
2018-12-10T13:13:31.458Z,7412.00
2018-12-10T13:14:31.443Z,7424.00
2018-12-10T13:15:31.440Z,6656.00
2018-12-10T13:16:31.416Z,7460.00
2018-12-10T13:17:31.410Z,7756.00
2018-12-10T13:18:31.406Z,6444.00
2018-12-10T13:19:31.392Z,5576.00
2018-12-10T13:20:31.371Z,4852.00
2018-12-10T13:21:31.372Z,5112.00
2018-12-10T13:22:31.368Z,5672.00
2018-12-10T13:23:31.339Z,6240.00
2018-12-10T13:24:31.342Z,6956.00
2018-12-10T13:25:31.321Z,5584.00
2018-12-10T13:26:31.309Z,4848.00
2018-12-10T13:27:31.337Z,5320.00
2018-12-10T13:28:31.293Z,6580.00
2018-12-10T13:29:31.612Z,7428.00
2018-12-10T13:30:31.339Z,8140.00
2018-12-10T13:31:31.300Z,7884.00
2018-12-10T13:32:31.242Z,6276.00
2018-12-10T13:33:31.254Z,6976.00